National Weather Service United States Department of Commerce

More Heavy Rain and Severe Thunderstorms Forecast for Central U.S. Wednesday Night into Thursday

Parts of Oklahoma, Kansas and Missouri which saw 3+ inches of rain to begin this week are forecast to see potentially another inch or more Wednesday night as another front sets up over the area. Along with the heavy rain, severe thunderstorms will again be possible with large hail the main threat. Severe thunderstorms will then take aim on parts of the Southern Plains and Northeast Thursday. Read More >


762
FTPA31 PHFO 212338
TAFSTU
TAF
NSTU 212338Z 2200/2224 08009KT P6SM VCSH FEW025 BKN035=


454
SAZS31 NSTU 220253
MTRPPG
METAR NSTU 220251Z VRB05KT 12SM FEW023 SCT140 BKN220 31/25 A2980 RMK
SLP091 8/171 T03100248 55015=

METAR Formatted Surface Weather Observation  Issued: 05/21/2019 03:53:13 PM SST

NSTU Observation History

 

Significant Weather Charts